createdAt,value
2023-02-16T00:10:42.892Z,12.35
2023-02-16T00:13:52.904Z,12.93
2023-02-16T00:16:24.390Z,10.20
2023-02-16T00:18:59.844Z,8.77
2023-02-16T00:21:42.672Z,13.15
2023-02-16T00:24:12.770Z,12.18
2023-02-16T00:26:46.711Z,8.43
2023-02-16T00:29:40.283Z,12.93
2023-02-16T00:32:15.454Z,10.13
2023-02-16T00:34:55.565Z,11.63
2023-02-16T00:37:41.559Z,10.15
2023-02-16T00:40:09.174Z,9.60
2023-02-16T00:42:37.571Z,10.50
2023-02-16T00:45:11.026Z,8.90
2023-02-16T00:48:03.573Z,9.65
2023-02-16T00:55:15.082Z,10.48
2023-02-16T00:58:50.384Z,8.05
2023-02-16T01:01:59.663Z,9.53
2023-02-16T01:04:38.591Z,11.57
2023-02-16T01:07:35.029Z,10.82
2023-02-16T01:10:20.397Z,10.23
2023-02-16T01:12:46.970Z,11.35
2023-02-16T01:15:23.871Z,10.10
2023-02-16T01:17:50.472Z,12.20
2023-02-16T01:20:23.446Z,11.75
2023-02-16T01:22:50.958Z,11.27
2023-02-16T01:25:18.572Z,14.32
2023-02-16T01:27:46.628Z,12.03
2023-02-16T01:30:19.151Z,15.73
2023-02-16T01:32:51.488Z,11.52
2023-02-16T01:35:38.901Z,19.35
2023-02-16T01:38:05.786Z,13.38
2023-02-16T01:40:56.818Z,11.90
2023-02-16T01:43:30.317Z,14.68
2023-02-16T01:46:07.815Z,14.98
2023-02-16T01:48:34.662Z,13.98
2023-02-16T01:51:08.496Z,15.15
2023-02-16T01:53:47.502Z,9.47
2023-02-16T01:56:45.838Z,10.27
2023-02-16T01:59:26.912Z,11.18
2023-02-16T02:02:04.693Z,11.00
2023-02-16T02:05:02.496Z,8.32
2023-02-16T02:07:37.412Z,11.50
2023-02-16T02:10:14.739Z,11.93
2023-02-16T02:12:53.434Z,7.20
2023-02-16T02:15:24.540Z,10.00
2023-02-16T02:17:51.163Z,9.25
2023-02-16T02:20:49.802Z,11.53
2023-02-16T02:23:33.207Z,6.32
2023-02-16T02:26:12.359Z,9.30
2023-02-16T02:29:23.959Z,9.82
2023-02-16T02:32:08.887Z,6.88
2023-02-16T02:34:55.684Z,7.17
2023-02-16T02:37:49.756Z,8.65
2023-02-16T02:40:34.260Z,6.70
2023-02-16T02:43:22.901Z,11.75
2023-02-16T02:46:13.050Z,6.63
2023-02-16T02:48:39.980Z,8.63
2023-02-16T02:51:28.150Z,13.55
2023-02-16T02:54:32.326Z,8.90
2023-02-16T02:57:34.142Z,7.93
2023-02-16T03:00:26.453Z,8.93
2023-02-16T03:02:58.559Z,7.73
2023-02-16T03:05:29.275Z,10.95
2023-02-16T03:08:06.433Z,8.35
2023-02-16T03:10:55.861Z,9.98
2023-02-16T03:13:30.136Z,8.85
2023-02-16T03:15:58.986Z,9.33
2023-02-16T03:18:47.310Z,11.80
2023-02-16T03:21:34.074Z,9.77
2023-02-16T03:24:22.078Z,11.82
2023-02-16T03:27:09.434Z,8.20
2023-02-16T03:29:38.379Z,11.30
2023-02-16T03:32:06.213Z,11.40
2023-02-16T03:34:34.964Z,6.70
2023-02-16T03:37:02.331Z,8.70
2023-02-16T03:39:29.863Z,9.48
2023-02-16T03:41:57.599Z,10.77
2023-02-16T03:44:25.191Z,9.02
2023-02-16T03:46:52.136Z,9.88
2023-02-16T03:49:19.576Z,6.75
2023-02-16T03:51:46.634Z,10.13
2023-02-16T03:54:13.391Z,8.87
2023-02-16T03:56:40.030Z,7.38
2023-02-16T03:59:06.707Z,7.15
2023-02-16T04:01:33.363Z,7.07
2023-02-16T04:03:59.983Z,10.63
2023-02-16T04:06:26.619Z,13.77
2023-02-16T04:08:53.229Z,8.65
2023-02-16T04:11:38.457Z,9.65
2023-02-16T04:14:04.966Z,7.05
2023-02-16T04:16:31.582Z,8.85
2023-02-16T04:18:58.235Z,8.90
2023-02-16T04:21:25.046Z,9.27
2023-02-16T04:23:51.667Z,7.90
2023-02-16T04:26:18.297Z,7.13
2023-02-16T04:28:44.919Z,10.40
2023-02-16T04:31:11.615Z,8.43
2023-02-16T04:33:38.259Z,7.70
2023-02-16T04:36:05.150Z,8.55
2023-02-16T04:38:31.721Z,8.10
2023-02-16T04:40:58.325Z,13.85
2023-02-16T04:43:24.788Z,11.27
2023-02-16T04:45:51.397Z,9.95
2023-02-16T04:48:18.204Z,10.02
2023-02-16T04:50:44.834Z,12.27
2023-02-16T04:53:11.398Z,12.15
2023-02-16T04:55:37.956Z,11.23
2023-02-16T04:58:04.474Z,11.90
2023-02-16T05:00:31.049Z,9.57
2023-02-16T05:02:57.669Z,10.50
2023-02-16T05:05:24.328Z,9.20
2023-02-16T05:07:50.924Z,8.30
2023-02-16T05:10:17.532Z,11.27
2023-02-16T05:13:02.608Z,10.38
2023-02-16T05:15:29.216Z,10.02
2023-02-16T05:17:55.864Z,10.93
2023-02-16T05:20:42.685Z,10.13
2023-02-16T05:23:09.367Z,10.90
2023-02-16T05:25:35.876Z,10.70
2023-02-16T05:28:02.438Z,14.68
2023-02-16T05:30:29.041Z,8.95
2023-02-16T05:32:55.652Z,9.13
2023-02-16T05:35:22.464Z,10.95
2023-02-16T05:37:49.032Z,10.80
2023-02-16T05:40:15.630Z,8.65
2023-02-16T05:42:42.229Z,8.43
2023-02-16T05:45:09.369Z,9.47
2023-02-16T05:47:36.025Z,10.18
2023-02-16T05:50:02.676Z,6.53
2023-02-16T05:52:29.322Z,10.73
2023-02-16T05:54:55.902Z,9.63
2023-02-16T05:57:22.516Z,9.70
2023-02-16T05:59:49.013Z,10.02
2023-02-16T06:02:15.650Z,13.82
2023-02-16T06:04:42.313Z,9.43
2023-02-16T06:07:08.973Z,8.68
2023-02-16T06:09:35.688Z,13.70
2023-02-16T06:12:02.267Z,10.32
2023-02-16T06:14:28.908Z,8.40
2023-02-16T06:16:56.639Z,10.65
2023-02-16T06:19:23.263Z,11.40
2023-02-16T06:21:50.493Z,14.43
2023-02-16T06:24:17.081Z,9.77
2023-02-16T06:26:43.630Z,11.85
2023-02-16T06:29:10.696Z,12.35
2023-02-16T06:31:40.285Z,12.80
2023-02-16T06:34:07.427Z,12.50
2023-02-16T06:36:34.826Z,13.98
2023-02-16T06:39:01.439Z,11.40
2023-02-16T06:41:43.212Z,11.40
2023-02-16T06:44:13.616Z,13.57
2023-02-16T06:46:41.369Z,10.80
2023-02-16T06:49:10.934Z,10.30
2023-02-16T06:51:37.531Z,7.90
2023-02-16T06:54:04.375Z,8.75
2023-02-16T06:56:31.499Z,7.15
2023-02-16T06:58:58.084Z,10.93
2023-02-16T07:01:25.987Z,8.70
2023-02-16T07:03:54.217Z,8.40
2023-02-16T07:06:29.283Z,6.88
2023-02-16T07:08:56.130Z,6.68
2023-02-16T07:11:24.243Z,9.30
2023-02-16T07:13:51.115Z,5.80
2023-02-16T07:16:21.390Z,4.30
2023-02-16T07:18:48.332Z,7.03
2023-02-16T07:21:16.517Z,6.32
2023-02-16T07:23:45.203Z,3.33
2023-02-16T07:26:12.107Z,3.67
2023-02-16T07:28:38.988Z,3.50
2023-02-16T07:31:11.379Z,7.35
2023-02-16T07:33:38.864Z,4.47
2023-02-16T07:36:07.193Z,5.33
2023-02-16T07:38:34.158Z,4.22
2023-02-16T07:41:00.746Z,3.13
2023-02-16T07:43:30.216Z,5.50
2023-02-16T07:45:56.945Z,4.93
2023-02-16T07:48:23.579Z,7.97
2023-02-16T07:50:51.305Z,1.00
2023-02-16T07:53:18.660Z,3.70
2023-02-16T07:55:46.486Z,5.10
2023-02-16T07:58:27.244Z,5.38
2023-02-16T08:01:06.520Z,3.50
2023-02-16T08:03:33.224Z,1.92
2023-02-16T08:06:04.180Z,4.28
2023-02-16T08:08:31.546Z,1.02
2023-02-16T08:10:58.194Z,3.63
2023-02-16T08:13:26.183Z,3.07
2023-02-16T08:15:52.692Z,5.60
2023-02-16T08:18:19.696Z,3.67
2023-02-16T08:21:04.556Z,4.72
2023-02-16T08:23:31.849Z,3.60
2023-02-16T08:25:59.417Z,3.60
2023-02-16T08:28:28.957Z,1.60
2023-02-16T08:30:56.229Z,3.70
2023-02-16T08:33:23.334Z,3.38
2023-02-16T08:35:50.378Z,3.53
2023-02-16T08:38:19.883Z,4.03
2023-02-16T08:40:59.216Z,2.28
2023-02-16T08:43:28.613Z,2.50
2023-02-16T08:45:55.973Z,3.53
2023-02-16T08:48:25.898Z,3.97
2023-02-16T08:50:55.478Z,7.53
2023-02-16T08:53:23.459Z,2.67
2023-02-16T08:55:57.993Z,3.72
2023-02-16T08:58:27.079Z,4.70
2023-02-16T09:00:54.130Z,2.70
2023-02-16T09:03:20.883Z,4.17
2023-02-16T09:05:49.050Z,1.90
2023-02-16T09:08:15.992Z,2.60
2023-02-16T09:10:43.305Z,3.95
2023-02-16T09:13:16.251Z,3.60
2023-02-16T09:15:44.117Z,2.70
2023-02-16T09:18:15.245Z,4.22
2023-02-16T09:20:47.182Z,4.13
2023-02-16T09:23:13.947Z,2.58
2023-02-16T09:25:42.090Z,3.95
2023-02-16T09:28:10.966Z,2.67
2023-02-16T09:30:38.574Z,2.67
2023-02-16T09:33:05.281Z,3.92
2023-02-16T09:35:32.021Z,2.83
2023-02-16T09:38:00.895Z,3.50
2023-02-16T09:40:32.918Z,3.83
2023-02-16T09:43:16.790Z,2.78
2023-02-16T09:45:47.936Z,3.60
2023-02-16T09:48:45.529Z,4.90
2023-02-16T09:51:41.192Z,4.20
2023-02-16T09:54:30.839Z,3.33
2023-02-16T09:57:08.231Z,3.63
2023-02-16T09:59:43.816Z,5.05
2023-02-16T10:02:29.965Z,5.40
2023-02-16T10:05:56.976Z,4.03
2023-02-16T10:08:50.382Z,4.00
2023-02-16T10:12:08.092Z,3.30
2023-02-16T10:15:07.630Z,4.55
2023-02-16T10:17:45.436Z,6.53
2023-02-16T10:20:18.132Z,4.35
2023-02-16T10:23:10.587Z,5.20
2023-02-16T10:26:02.677Z,3.20
2023-02-16T10:28:41.586Z,3.60
2023-02-16T10:31:28.050Z,5.10
2023-02-16T10:34:23.031Z,5.25
2023-02-16T10:37:15.328Z,3.57
2023-02-16T10:40:00.138Z,5.50
2023-02-16T10:42:37.167Z,6.32
2023-02-16T10:45:24.800Z,5.13
2023-02-16T10:47:52.986Z,3.22
2023-02-16T10:50:25.639Z,3.90
2023-02-16T10:52:58.376Z,4.80
2023-02-16T10:55:26.265Z,5.75
2023-02-16T10:57:58.932Z,3.63
2023-02-16T11:00:52.534Z,5.10
2023-02-16T11:03:25.957Z,3.17
2023-02-16T11:05:55.490Z,3.85
2023-02-16T11:08:24.176Z,5.53
2023-02-16T11:10:53.510Z,3.92
2023-02-16T11:13:35.822Z,3.63
2023-02-16T11:16:24.514Z,4.13
2023-02-16T11:19:18.175Z,2.72
2023-02-16T11:21:50.875Z,2.70
2023-02-16T11:24:40.637Z,2.97
2023-02-16T11:27:19.627Z,3.17
2023-02-16T11:29:46.421Z,3.50
2023-02-16T11:32:16.332Z,2.47
2023-02-16T11:34:51.338Z,3.83
2023-02-16T11:37:28.796Z,2.70
2023-02-16T11:40:02.665Z,3.25
2023-02-16T11:42:40.812Z,4.10
2023-02-16T11:45:09.510Z,3.88
2023-02-16T11:47:42.828Z,4.45
2023-02-16T11:50:35.731Z,3.38
2023-02-16T11:53:13.259Z,4.65
2023-02-16T11:55:48.642Z,4.00
2023-02-16T11:58:23.025Z,4.35
2023-02-16T12:01:14.687Z,4.10
2023-02-16T12:04:12.996Z,6.07
2023-02-16T12:07:02.319Z,5.47
2023-02-16T12:10:01.906Z,4.30
2023-02-16T12:12:37.843Z,4.45
2023-02-16T12:15:39.840Z,5.00
2023-02-16T12:18:50.988Z,4.82
2023-02-16T12:21:59.366Z,4.75
2023-02-16T12:24:37.612Z,5.53
2023-02-16T12:27:18.882Z,5.18
2023-02-16T12:30:15.434Z,5.60
2023-02-16T12:32:48.195Z,5.93
2023-02-16T12:35:52.382Z,6.53
2023-02-16T12:38:46.546Z,5.13
2023-02-16T12:41:54.831Z,3.97
2023-02-16T12:44:37.520Z,6.05
2023-02-16T12:47:30.026Z,5.28
2023-02-16T12:50:02.085Z,5.78
2023-02-16T12:52:56.004Z,5.63
2023-02-16T12:55:38.544Z,7.85
2023-02-16T12:58:08.255Z,6.75
2023-02-16T13:00:45.380Z,6.38
2023-02-16T13:03:37.514Z,6.85
2023-02-16T13:06:43.945Z,9.27
2023-02-16T13:09:41.200Z,6.10
2023-02-16T13:12:30.625Z,6.03
2023-02-16T13:15:20.976Z,6.30
2023-02-16T13:17:53.063Z,6.13
2023-02-16T13:20:26.834Z,6.50
2023-02-16T13:23:13.275Z,6.75
2023-02-16T13:26:12.476Z,8.00
2023-02-16T13:29:08.345Z,9.05
2023-02-16T13:31:54.637Z,6.30
2023-02-16T13:34:48.949Z,8.03
2023-02-16T13:37:50.626Z,8.07
2023-02-16T13:40:42.105Z,7.18
2023-02-16T13:43:33.527Z,7.78
2023-02-16T13:46:18.315Z,7.00
2023-02-16T13:48:52.078Z,6.07
2023-02-16T13:51:23.350Z,7.00
2023-02-16T13:54:27.276Z,6.00
2023-02-16T13:56:54.462Z,5.65
2023-02-16T14:00:08.052Z,5.43
2023-02-16T14:02:54.563Z,4.83
2023-02-16T14:05:28.769Z,5.85
2023-02-16T14:08:09.166Z,4.97
2023-02-16T14:10:54.015Z,4.60
2023-02-16T14:13:46.151Z,3.85
2023-02-16T14:16:33.733Z,3.70
2023-02-16T14:19:22.649Z,2.38
2023-02-16T14:22:20.072Z,4.25
2023-02-16T14:25:03.733Z,3.33
2023-02-16T14:28:20.227Z,4.13
2023-02-16T14:30:53.330Z,3.87
2023-02-16T14:33:33.304Z,3.03
2023-02-16T14:35:59.875Z,3.55
2023-02-16T14:38:40.445Z,3.15
2023-02-16T14:41:36.118Z,2.97
2023-02-16T14:44:07.381Z,4.27
2023-02-16T14:46:34.059Z,2.67
2023-02-16T14:49:21.867Z,4.22
2023-02-16T14:51:54.535Z,3.67
2023-02-16T14:54:54.801Z,3.67
2023-02-16T14:57:47.870Z,5.33
2023-02-16T15:00:30.989Z,4.57
2023-02-16T15:03:03.478Z,4.03
2023-02-16T15:05:34.290Z,2.88
2023-02-16T15:08:18.595Z,2.95
2023-02-16T15:10:48.856Z,3.97
2023-02-16T15:13:21.506Z,4.07
2023-02-16T15:15:53.234Z,4.20
2023-02-16T15:18:23.620Z,3.78
2023-02-16T15:20:56.037Z,4.13
2023-02-16T15:23:25.456Z,4.83
2023-02-16T15:26:20.421Z,3.53
2023-02-16T15:28:56.326Z,4.82
2023-02-16T15:31:34.229Z,4.95
2023-02-16T15:34:08.290Z,4.25
2023-02-16T15:36:38.441Z,4.60
2023-02-16T15:39:28.196Z,3.97
2023-02-16T15:42:21.744Z,5.63
2023-02-16T15:44:48.710Z,4.82
2023-02-16T15:47:24.319Z,3.58
2023-02-16T15:49:55.766Z,6.23
2023-02-16T15:52:37.854Z,4.43
2023-02-16T15:55:09.247Z,4.65
2023-02-16T15:57:40.109Z,5.88
2023-02-16T16:00:20.728Z,5.03
2023-02-16T16:02:53.704Z,5.60
2023-02-16T16:05:45.316Z,4.22
2023-02-16T16:08:14.601Z,3.53
2023-02-16T16:10:47.604Z,5.45
2023-02-16T16:13:30.080Z,7.88
2023-02-16T16:16:02.297Z,7.37
2023-02-16T16:18:43.631Z,5.55
2023-02-16T16:21:13.483Z,6.15
2023-02-16T16:23:40.808Z,7.97
2023-02-16T16:26:20.309Z,4.55
2023-02-16T16:28:47.231Z,4.73
2023-02-16T16:31:36.758Z,4.35
2023-02-16T16:34:31.723Z,6.50
2023-02-16T16:36:59.296Z,5.07
2023-02-16T16:39:31.500Z,4.75
2023-02-16T16:42:01.272Z,5.27
2023-02-16T16:44:35.604Z,5.13
2023-02-16T16:47:25.058Z,5.03
2023-02-16T16:49:54.514Z,6.20
2023-02-16T16:52:51.559Z,5.45
2023-02-16T16:55:25.138Z,7.37
2023-02-16T16:58:08.221Z,4.93
2023-02-16T17:00:38.425Z,5.78
2023-02-16T17:03:08.287Z,5.72
2023-02-16T17:05:38.742Z,5.47
2023-02-16T17:08:08.775Z,4.30
2023-02-16T17:10:42.311Z,6.63
2023-02-16T17:13:15.210Z,5.75
2023-02-16T17:15:58.744Z,5.70
2023-02-16T17:18:25.805Z,5.97
2023-02-16T17:20:52.699Z,5.77
2023-02-16T17:23:26.124Z,7.22
2023-02-16T17:25:55.326Z,6.25
2023-02-16T17:28:22.391Z,6.93
2023-02-16T17:30:48.966Z,7.18
2023-02-16T17:33:16.356Z,5.67
2023-02-16T17:35:43.856Z,6.25
2023-02-16T17:38:18.792Z,7.15
2023-02-16T17:40:53.769Z,7.38
2023-02-16T17:43:22.105Z,7.88
2023-02-16T17:46:07.620Z,5.07
2023-02-16T17:48:37.234Z,6.05
2023-02-16T17:51:04.223Z,8.00
2023-02-16T17:53:31.554Z,5.70
2023-02-16T17:55:58.548Z,7.32
2023-02-16T17:58:25.685Z,6.63
2023-02-16T18:00:55.629Z,4.55
2023-02-16T18:03:23.308Z,7.05
2023-02-16T18:05:50.304Z,4.93
2023-02-16T18:08:17.033Z,6.13
2023-02-16T18:10:50.864Z,7.27
2023-02-16T18:13:19.498Z,6.93
2023-02-16T18:15:51.964Z,4.25
2023-02-16T18:18:38.142Z,4.40
2023-02-16T18:21:10.394Z,5.95
2023-02-16T18:23:39.723Z,5.90
2023-02-16T18:26:07.479Z,3.20
2023-02-16T18:28:34.707Z,5.13
2023-02-16T18:31:05.156Z,5.13
2023-02-16T18:33:44.441Z,5.15
2023-02-16T18:36:11.170Z,3.07
2023-02-16T18:38:42.539Z,6.35
2023-02-16T18:41:10.350Z,4.35
2023-02-16T18:43:37.389Z,3.28
2023-02-16T18:46:09.126Z,2.50
2023-02-16T18:48:36.003Z,3.50
2023-02-16T18:51:24.190Z,2.28
2023-02-16T18:53:51.099Z,3.67
2023-02-16T18:56:25.865Z,5.82
2023-02-16T18:58:58.915Z,5.38
2023-02-16T19:01:33.396Z,2.30
2023-02-16T19:04:17.300Z,3.28
2023-02-16T19:06:50.334Z,5.10
2023-02-16T19:09:17.976Z,4.82
2023-02-16T19:11:49.974Z,3.95
2023-02-16T19:14:18.710Z,3.77
2023-02-16T19:16:48.160Z,3.00
2023-02-16T19:19:19.326Z,4.20
2023-02-16T19:21:46.061Z,4.65
2023-02-16T19:24:13.297Z,3.03
2023-02-16T19:26:40.572Z,4.30
2023-02-16T19:29:07.329Z,5.20
2023-02-16T19:31:38.031Z,4.10
2023-02-16T19:34:15.591Z,4.35
2023-02-16T19:36:44.145Z,3.13
2023-02-16T19:39:12.203Z,4.60
2023-02-16T19:41:45.410Z,4.93
2023-02-16T19:44:14.297Z,3.78
2023-02-16T19:46:44.744Z,4.90
2023-02-16T19:49:15.202Z,6.38
2023-02-16T19:51:42.909Z,4.10
2023-02-16T19:54:14.066Z,5.85
2023-02-16T19:56:41.614Z,4.15
2023-02-16T19:59:16.953Z,5.20
2023-02-16T20:01:44.022Z,3.85
2023-02-16T20:04:13.741Z,4.67
2023-02-16T20:06:42.067Z,4.38
2023-02-16T20:09:12.652Z,5.00
2023-02-16T20:11:44.385Z,5.63
2023-02-16T20:17:05.363Z,4.40
2023-02-16T20:19:34.320Z,3.55
2023-02-16T20:22:09.488Z,3.28
2023-02-16T20:24:39.022Z,5.82
2023-02-16T20:27:05.847Z,4.78
2023-02-16T20:29:44.884Z,4.07
2023-02-16T20:32:16.335Z,3.33
2023-02-16T20:34:43.208Z,4.38
2023-02-16T20:37:13.804Z,4.40
2023-02-16T20:39:40.588Z,4.03
2023-02-16T20:42:08.493Z,3.27
2023-02-16T20:44:34.993Z,4.45
2023-02-16T20:47:01.835Z,4.15
2023-02-16T20:49:30.406Z,6.07
2023-02-16T20:52:00.254Z,4.22
2023-02-16T20:54:26.963Z,3.77
2023-02-16T20:56:54.171Z,5.85
2023-02-16T20:59:21.167Z,4.03
2023-02-16T21:01:54.961Z,5.60
2023-02-16T21:04:24.957Z,4.53
2023-02-16T21:06:51.709Z,4.47
2023-02-16T21:09:18.403Z,5.45
2023-02-16T21:11:48.822Z,4.78
2023-02-16T21:14:15.574Z,4.18
2023-02-16T21:16:42.956Z,4.25
2023-02-16T21:19:22.519Z,6.50
2023-02-16T21:21:52.956Z,3.88
2023-02-16T21:24:19.890Z,5.57
2023-02-16T21:26:46.514Z,6.88
2023-02-16T21:29:16.852Z,4.38
2023-02-16T21:31:44.199Z,5.50
2023-02-16T21:34:11.131Z,4.35
2023-02-16T21:36:38.931Z,4.82
2023-02-16T21:39:08.707Z,5.28
2023-02-16T21:42:06.873Z,4.07
2023-02-16T21:44:33.561Z,4.70
2023-02-16T21:47:18.567Z,4.10
2023-02-16T21:49:52.399Z,4.85
2023-02-16T21:52:26.441Z,2.83
2023-02-16T21:55:12.142Z,3.67
2023-02-16T21:57:40.748Z,3.90
2023-02-16T22:00:21.969Z,4.03
2023-02-16T22:17:24.943Z,5.15
2023-02-16T22:19:51.626Z,4.28
2023-02-16T22:22:18.330Z,4.53
2023-02-16T22:24:49.714Z,4.25
2023-02-16T22:27:16.460Z,3.57
2023-02-16T22:29:46.085Z,4.10
2023-02-16T22:32:17.941Z,4.00
2023-02-16T22:34:44.835Z,4.13
2023-02-16T22:37:11.621Z,4.13
2023-02-16T22:39:40.699Z,2.90
2023-02-16T22:42:26.178Z,4.18
2023-02-16T22:44:55.375Z,4.60
2023-02-16T22:47:22.238Z,4.68
2023-02-16T22:49:49.823Z,3.83
2023-02-16T22:52:20.103Z,4.60
2023-02-16T22:54:51.702Z,5.43
2023-02-16T22:57:19.158Z,6.90
2023-02-16T22:59:54.152Z,3.97
2023-02-16T23:02:25.853Z,5.32
2023-02-16T23:04:56.414Z,4.77
2023-02-16T23:07:23.272Z,4.13
2023-02-16T23:09:49.832Z,5.82
2023-02-16T23:12:16.738Z,5.45
2023-02-16T23:53:01.752Z,5.82
2023-02-16T23:55:28.526Z,4.63
2023-02-16T23:57:55.724Z,5.03
